Time;durP1;ratioP1;P1;durP2;ratioP2;P2;SDS_P1;SDS_P2;PMS_P1;PMS_P2;Temp;Humidity;BMP_temperature;BMP_pressure;BME280_temperature;BME280_humidity;BME280_pressure;Samples;Min_cycle;Max_cycle;Signal;HPM_P1;HPM_P2
2021/07/14 00:00:40;;;;;;;19.23;16.47;;;21.50;1.00;;;;;;5119843;28;20408;-83
2021/07/14 00:03:08;;;;;;;19.30;17.50;;;21.40;55.30;;;;;;5119523;28;20404;-85
2021/07/14 00:05:38;;;;;;;15.90;14.30;;;21.40;1.00;;;;;;5119156;28;20409;-84
2021/07/14 00:08:08;;;;;;;17.43;15.30;;;21.40;99.90;;;;;;5119092;28;20424;-85
2021/07/14 00:10:36;;;;;;;19.00;16.80;;;21.50;99.90;;;;;;5110977;28;20895;-85
2021/07/14 00:13:10;;;;;;;18.03;16.23;;;21.50;5.70;;;;;;5101208;28;20499;-85
2021/07/14 00:23:59;;;;;;;17.67;15.33;;;21.40;99.90;;;;;;5079713;28;20432;-84
2021/07/14 00:26:27;;;;;;;21.23;17.60;;;21.40;99.90;;;;;;5099624;28;20388;-85
2021/07/14 00:28:55;;;;;;;17.10;15.33;;;21.40;22.20;;;;;;5110393;28;20429;-84
2021/07/14 00:31:24;;;;;;;17.63;15.93;;;21.30;1.00;;;;;;5102562;28;20413;-84
2021/07/14 00:33:53;;;;;;;19.47;17.47;;;21.40;1.00;;;;;;5103604;28;20942;-85
2021/07/14 00:36:21;;;;;;;17.53;15.87;;;21.40;1.00;;;;;;5089663;28;20457;-84
2021/07/14 00:38:49;;;;;;;18.83;17.03;;;21.30;1.00;;;;;;5119050;28;20445;-84
2021/07/14 00:41:18;;;;;;;17.40;15.70;;;21.20;99.90;;;;;;5102135;28;20428;-83
2021/07/14 00:43:49;;;;;;;18.37;16.57;;;21.20;99.90;;;;;;5119738;28;20414;-84
2021/07/14 00:46:24;;;;;;;17.07;15.37;;;21.30;99.90;;;;;;5102061;28;20440;-83
2021/07/14 00:48:56;;;;;;;19.57;17.70;;;21.30;1.00;;;;;;5119510;28;20436;-84
2021/07/14 00:51:24;;;;;;;19.47;17.10;;;21.30;99.90;;;;;;5111772;28;20384;-85
2021/07/14 00:53:53;;;;;;;20.23;18.13;;;21.30;1.00;;;;;;5089028;28;20433;-85
2021/07/14 00:56:21;;;;;;;16.00;14.30;;;21.30;1.00;;;;;;5094244;28;20467;-85
2021/07/14 00:58:49;;;;;;;19.43;17.43;;;21.30;99.90;;;;;;5113937;28;21026;-85
2021/07/14 01:01:18;;;;;;;17.20;15.40;;;21.20;4.40;;;;;;5114043;28;20414;-84
2021/07/14 01:03:53;;;;;;;18.17;16.40;;;21.20;1.00;;;;;;5112066;28;20418;-85
2021/07/14 01:06:27;;;;;;;21.27;16.60;;;21.30;99.90;;;;;;5098682;28;20413;-85
2021/07/14 01:09:01;;;;;;;16.93;15.23;;;21.20;99.90;;;;;;5098784;28;20412;-85
2021/07/14 01:11:34;;;;;;;17.60;15.43;;;21.10;99.90;;;;;;5079537;28;20404;-86
2021/07/14 01:14:08;;;;;;;18.47;16.57;;;21.00;99.90;;;;;;5096666;28;20774;-84
2021/07/14 01:16:41;;;;;;;17.97;16.27;;;20.90;1.00;;;;;;5078115;28;20843;-85
2021/07/14 01:19:20;;;;;;;17.50;15.67;;;20.80;1.00;;;;;;5096353;28;20433;-85
2021/07/14 01:21:52;;;;;;;19.67;16.73;;;20.70;99.90;;;;;;5096616;28;20425;-84
2021/07/14 01:24:27;;;;;;;17.80;16.20;;;20.70;99.90;;;;;;5078438;28;20403;-86
2021/07/14 01:27:10;;;;;;;17.83;16.03;;;20.70;99.90;;;;;;5095651;28;20430;-84
2021/07/14 01:29:44;;;;;;;18.07;16.17;;;20.70;99.90;;;;;;5095779;28;20423;-85
2021/07/14 01:32:14;;;;;;;17.87;16.00;;;20.70;99.90;;;;;;5085475;28;20440;-85
2021/07/14 01:34:46;;;;;;;20.57;16.00;;;20.60;99.90;;;;;;5095141;28;20406;-84
2021/07/14 01:37:18;;;;;;;18.93;17.03;;;20.70;99.90;;;;;;5076936;28;20459;-85
2021/07/14 01:39:48;;;;;;;18.53;16.53;;;20.70;99.90;;;;;;5095499;28;20441;-84
2021/07/14 01:42:20;;;;;;;19.67;16.93;;;20.70;99.90;;;;;;5095361;28;20410;-85
2021/07/14 01:44:50;;;;;;;18.80;15.37;;;20.70;99.90;;;;;;5076930;28;20433;-85
2021/07/14 01:47:20;;;;;;;27.97;20.57;;;20.70;99.90;;;;;;5095525;28;20392;-85
2021/07/14 01:49:50;;;;;;;22.17;18.77;;;20.70;99.90;;;;;;5094788;28;20441;-85
2021/07/14 01:52:20;;;;;;;18.70;16.90;;;20.70;99.90;;;;;;5095779;28;20467;-85
2021/07/14 01:54:50;;;;;;;21.40;19.30;;;20.70;99.90;;;;;;5095779;28;20430;-85
2021/07/14 01:57:22;;;;;;;15.97;14.37;;;20.60;99.90;;;;;;5094970;28;20453;-85
2021/07/14 01:59:52;;;;;;;23.43;18.40;;;20.50;99.90;;;;;;5095732;28;20450;-84
2021/07/14 02:02:24;;;;;;;17.30;15.50;;;20.50;99.90;;;;;;5095120;28;20422;-85
2021/07/14 02:04:55;;;;;;;21.20;19.10;;;20.50;99.90;;;;;;5100423;28;20489;-84
2021/07/14 02:07:26;;;;;;;20.53;18.60;;;20.50;99.90;;;;;;5094505;28;20805;-84
2021/07/14 02:09:55;;;;;;;22.23;18.50;;;20.50;99.90;;;;;;5094303;28;20433;-85
2021/07/14 02:12:27;;;;;;;21.60;17.73;;;20.40;99.90;;;;;;5094690;28;20471;-85
2021/07/14 02:14:59;;;;;;;20.17;17.37;;;20.40;99.90;;;;;;5094687;28;20406;-85
2021/07/14 02:17:31;;;;;;;19.60;17.60;;;20.40;99.90;;;;;;5094323;28;20495;-86
2021/07/14 02:20:06;;;;;;;20.63;17.13;;;20.40;99.90;;;;;;5093553;28;20453;-85
2021/07/14 02:22:34;;;;;;;28.30;19.57;;;20.40;99.90;;;;;;5075833;28;20418;-85
2021/07/14 02:25:03;;;;;;;19.13;17.07;;;20.40;99.90;;;;;;5094088;28;20404;-85
2021/07/14 02:27:33;;;;;;;17.93;16.10;;;20.40;99.90;;;;;;5094118;28;20391;-84
2021/07/14 02:30:01;;;;;;;20.10;17.97;;;20.40;99.90;;;;;;5093731;28;20495;-84
2021/07/14 02:32:29;;;;;;;20.13;18.07;;;20.40;99.90;;;;;;5093729;28;20430;-84
2021/07/14 02:34:57;;;;;;;20.60;18.50;;;20.30;99.90;;;;;;5093476;28;20512;-84
2021/07/14 02:37:35;;;;;;;20.17;18.27;;;20.30;99.90;;;;;;5094785;28;20488;-85
2021/07/14 02:40:05;;;;;;;22.40;19.87;;;20.40;99.90;;;;;;5093829;28;20547;-84
2021/07/14 02:42:41;;;;;;;20.93;18.63;;;20.30;99.90;;;;;;5093974;28;20420;-84
2021/07/14 02:45:09;;;;;;;19.50;17.50;;;20.30;99.90;;;;;;5094051;28;20421;-84
2021/07/14 02:47:41;;;;;;;23.10;20.70;;;20.30;99.90;;;;;;5094120;28;20428;-84
2021/07/14 02:50:15;;;;;;;24.93;20.03;;;20.30;99.90;;;;;;5093590;28;20496;-84
2021/07/14 02:52:48;;;;;;;20.37;18.27;;;20.30;99.90;;;;;;5093957;28;20413;-84
2021/07/14 02:55:19;;;;;;;19.57;17.57;;;20.30;99.90;;;;;;5097718;28;20882;-84
2021/07/14 02:57:52;;;;;;;19.97;17.43;;;20.30;99.90;;;;;;5098326;28;20465;-84
2021/07/14 03:00:20;;;;;;;20.70;18.57;;;20.20;99.90;;;;;;5080485;28;20433;-85
2021/07/14 03:02:49;;;;;;;19.60;17.57;;;20.20;99.90;;;;;;5101948;28;20923;-85
2021/07/14 03:05:18;;;;;;;21.43;18.53;;;20.20;99.90;;;;;;5100362;28;20425;-85
2021/07/14 03:07:48;;;;;;;19.30;16.43;;;20.20;99.90;;;;;;5100055;28;20453;-85
2021/07/14 03:10:19;;;;;;;21.00;17.83;;;20.20;99.90;;;;;;5079964;28;20464;-84
2021/07/14 03:12:51;;;;;;;19.77;16.70;;;20.20;99.90;;;;;;5098301;28;20454;-84
2021/07/14 03:15:20;;;;;;;20.43;17.83;;;20.20;99.90;;;;;;5102727;28;20422;-84
2021/07/14 03:17:50;;;;;;;20.97;18.00;;;20.20;99.90;;;;;;5117745;28;20416;-84
2021/07/14 03:20:19;;;;;;;23.93;17.70;;;20.20;99.90;;;;;;5103568;28;20413;-84
2021/07/14 03:22:49;;;;;;;21.93;17.63;;;20.30;99.90;;;;;;5104701;28;20429;-85
2021/07/14 03:25:19;;;;;;;19.57;17.47;;;20.20;99.90;;;;;;5079647;28;20793;-84
2021/07/14 03:27:50;;;;;;;18.90;16.90;;;20.20;99.90;;;;;;5079584;28;20437;-83
2021/07/14 03:30:20;;;;;;;19.40;17.40;;;20.20;99.90;;;;;;5098490;28;20421;-85
2021/07/14 03:32:49;;;;;;;17.13;14.23;;;20.20;99.90;;;;;;5107273;28;20417;-84
2021/07/14 03:35:18;;;;;;;17.40;14.60;;;20.30;99.90;;;;;;5117821;28;20428;-84
2021/07/14 03:37:48;;;;;;;16.90;13.40;;;20.30;99.90;;;;;;5099688;28;20475;-85
2021/07/14 03:40:17;;;;;;;14.00;12.60;;;20.30;99.90;;;;;;5118565;28;20449;-85
2021/07/14 03:42:48;;;;;;;17.87;14.53;;;20.30;99.90;;;;;;5100728;28;20455;-84
2021/07/14 03:45:18;;;;;;;16.83;12.97;;;20.30;99.90;;;;;;5097309;28;20482;-84
2021/07/14 03:47:48;;;;;;;15.83;14.33;;;20.40;99.90;;;;;;5098042;28;20409;-84
2021/07/14 03:50:17;;;;;;;15.30;12.30;;;20.50;99.90;;;;;;5097747;28;20434;-85
2021/07/14 03:52:46;;;;;;;15.30;12.90;;;20.50;99.90;;;;;;5097436;28;20998;-85
2021/07/14 03:55:15;;;;;;;14.80;12.27;;;20.50;99.90;;;;;;5097533;28;20483;-85
2021/07/14 03:57:44;;;;;;;14.03;10.87;;;20.50;99.90;;;;;;5097659;28;20567;-84
2021/07/14 04:00:13;;;;;;;15.20;12.03;;;20.40;99.90;;;;;;5120655;22;20543;-81
2021/07/14 04:02:45;;;;;;;12.20;10.87;;;20.50;99.90;;;;;;5075966;28;20430;-79
2021/07/14 04:05:24;;;;;;;14.23;12.33;;;20.60;99.90;;;;;;5082341;28;20449;-81
2021/07/14 04:07:54;;;;;;;12.43;11.13;;;20.50;99.90;;;;;;5080866;28;20872;-78
2021/07/14 04:10:22;;;;;;;12.00;10.70;;;20.40;99.90;;;;;;5078866;28;20450;-80
2021/07/14 04:12:51;;;;;;;14.70;10.63;;;20.50;99.90;;;;;;5093294;28;20468;-79
2021/07/14 04:15:19;;;;;;;11.83;10.70;;;20.50;99.90;;;;;;5096698;28;20448;-79
2021/07/14 04:17:48;;;;;;;13.27;9.80;;;20.60;99.90;;;;;;5097673;28;20473;-79
2021/07/14 04:20:16;;;;;;;15.60;10.43;;;20.70;99.90;;;;;;5096605;28;20450;-79
2021/07/14 04:22:44;;;;;;;12.60;10.57;;;20.70;99.90;;;;;;5097670;28;20409;-79
2021/07/14 04:25:12;;;;;;;14.07;10.07;;;20.80;99.90;;;;;;5097884;28;20429;-79
2021/07/14 04:27:40;;;;;;;9.80;8.80;;;20.80;99.90;;;;;;5097557;28;20450;-79
2021/07/14 04:30:09;;;;;;;17.70;12.00;;;20.90;99.90;;;;;;5099208;28;20427;-80
2021/07/14 04:32:37;;;;;;;15.90;9.73;;;20.90;99.90;;;;;;5099045;28;20427;-80
2021/07/14 04:35:08;;;;;;;12.47;10.90;;;20.90;99.90;;;;;;5098660;28;20405;-79
2021/07/14 04:37:36;;;;;;;10.37;9.37;;;21.00;99.90;;;;;;5098913;28;20468;-80
2021/07/14 04:40:05;;;;;;;13.50;9.43;;;20.90;99.90;;;;;;5080415;28;20441;-79
2021/07/14 04:42:33;;;;;;;13.60;10.50;;;20.90;99.90;;;;;;5075634;28;20834;-80
2021/07/14 04:45:01;;;;;;;13.83;10.53;;;21.00;99.90;;;;;;5076958;28;20418;-80
2021/07/14 04:47:29;;;;;;;13.53;11.20;;;21.10;99.90;;;;;;5076704;28;20903;-80
2021/07/14 04:49:57;;;;;;;15.83;10.67;;;21.20;99.90;;;;;;5074877;28;20457;-80
2021/07/14 04:52:26;;;;;;;17.73;11.43;;;21.20;99.90;;;;;;5076043;28;20434;-79
2021/07/14 04:54:54;;;;;;;12.57;10.83;;;21.20;99.90;;;;;;5076694;28;20422;-78
2021/07/14 04:57:23;;;;;;;17.57;12.60;;;21.10;99.90;;;;;;5076749;28;20426;-80
2021/07/14 04:59:51;;;;;;;13.80;11.23;;;21.10;99.90;;;;;;5074501;28;20435;-79
2021/07/14 05:02:19;;;;;;;15.63;11.27;;;21.10;99.90;;;;;;5076415;28;20426;-79
2021/07/14 05:04:47;;;;;;;17.83;12.93;;;21.10;99.90;;;;;;5074744;28;20443;-79
2021/07/14 05:07:15;;;;;;;20.90;12.33;;;21.10;99.90;;;;;;5075691;28;20772;-80
2021/07/14 05:09:44;;;;;;;15.50;12.67;;;20.90;99.90;;;;;;5075458;28;20497;-80
2021/07/14 05:12:12;;;;;;;15.93;10.90;;;20.70;99.90;;;;;;5075079;28;20789;-79
2021/07/14 05:14:40;;;;;;;16.73;12.50;;;20.70;99.90;;;;;;5076505;28;20784;-80
2021/07/14 05:17:08;;;;;;;17.97;12.37;;;20.60;99.90;;;;;;5073828;28;20481;-81
2021/07/14 05:19:36;;;;;;;15.37;11.87;;;20.60;99.90;;;;;;5076866;28;20476;-82
2021/07/14 05:22:04;;;;;;;17.10;14.10;;;20.80;99.90;;;;;;5077447;28;20417;-81
2021/07/14 05:24:32;;;;;;;19.30;12.23;;;21.00;99.90;;;;;;5076134;28;20479;-82
2021/07/14 05:27:02;;;;;;;16.53;13.00;;;21.00;99.90;;;;;;5076491;28;20880;-82
2021/07/14 05:29:30;;;;;;;18.97;12.80;;;21.10;99.90;;;;;;5077362;28;20457;-81
2021/07/14 05:31:58;;;;;;;15.27;11.90;;;21.30;99.90;;;;;;5076086;28;20473;-82
2021/07/14 05:34:26;;;;;;;15.47;11.67;;;21.50;99.90;;;;;;5074790;28;20789;-81
2021/07/14 05:36:54;;;;;;;16.70;13.33;;;21.50;99.90;;;;;;5076589;28;20407;-81
2021/07/14 05:39:23;;;;;;;18.83;15.20;;;21.50;99.90;;;;;;5074872;28;20545;-81
2021/07/14 05:41:51;;;;;;;15.10;13.03;;;21.60;99.90;;;;;;5074754;28;20430;-81
2021/07/14 05:44:20;;;;;;;20.33;14.97;;;21.60;99.90;;;;;;5074507;28;20435;-81
2021/07/14 05:46:50;;;;;;;13.67;11.63;;;21.70;99.90;;;;;;5075913;28;20530;-82
2021/07/14 05:49:18;;;;;;;15.83;11.53;;;21.70;99.90;;;;;;5075622;28;20499;-81
2021/07/14 05:51:46;;;;;;;15.73;12.60;;;21.80;99.90;;;;;;5075261;28;20457;-82
2021/07/14 05:54:14;;;;;;;27.30;13.37;;;21.80;99.90;;;;;;5075972;28;20446;-81
2021/07/14 05:56:43;;;;;;;17.80;14.80;;;21.90;99.90;;;;;;5076562;28;20430;-82
2021/07/14 05:59:11;;;;;;;21.93;11.90;;;22.30;99.90;;;;;;5075289;28;20556;-81
2021/07/14 06:01:40;;;;;;;15.90;11.30;;;22.80;99.90;;;;;;5073369;28;20438;-82
2021/07/14 06:04:08;;;;;;;18.40;14.57;;;23.20;99.90;;;;;;5072748;28;20430;-80
2021/07/14 06:06:36;;;;;;;19.23;13.30;;;23.40;99.90;;;;;;5072782;28;20405;-80
2021/07/14 06:09:05;;;;;;;12.97;11.67;;;23.50;1.00;;;;;;5081993;28;20869;-82
2021/07/14 06:11:33;;;;;;;16.23;12.63;;;23.70;1.00;;;;;;5086615;28;20425;-82
2021/07/14 06:14:01;;;;;;;13.33;10.97;;;23.70;1.00;;;;;;5094437;28;20441;-80
2021/07/14 06:16:29;;;;;;;14.30;11.33;;;23.60;1.00;;;;;;5093939;28;20441;-80
2021/07/14 06:18:59;;;;;;;13.50;11.73;;;23.60;1.00;;;;;;5093007;28;20576;-79
2021/07/14 06:21:27;;;;;;;13.40;11.20;;;23.40;99.90;;;;;;5083802;28;20455;-81
2021/07/14 06:23:55;;;;;;;16.60;12.27;;;23.40;99.90;;;;;;5099962;28;20435;-80
2021/07/14 06:26:23;;;;;;;14.70;13.20;;;23.20;99.90;;;;;;5127484;27;20416;-81
2021/07/14 06:28:52;;;;;;;19.47;14.37;;;23.30;99.90;;;;;;5137242;27;20439;-81
2021/07/14 06:31:20;;;;;;;16.40;12.40;;;23.10;99.90;;;;;;5138229;27;20397;-80
2021/07/14 06:33:48;;;;;;;18.73;12.93;;;23.10;12.90;;;;;;5109923;28;20459;-80
2021/07/14 06:36:17;;;;;;;15.23;12.57;;;23.10;29.20;;;;;;5116968;28;20417;-79
2021/07/14 06:38:46;;;;;;;17.67;15.77;;;23.10;1.00;;;;;;5107632;28;21037;-80
2021/07/14 06:41:17;;;;;;;14.63;12.63;;;23.20;1.00;;;;;;5110990;28;20433;-80
2021/07/14 06:43:48;;;;;;;15.30;13.43;;;23.20;99.90;;;;;;5109946;28;20440;-81
2021/07/14 06:46:18;;;;;;;16.30;13.10;;;23.30;99.90;;;;;;5105334;28;20935;-81
2021/07/14 06:48:47;;;;;;;15.60;13.60;;;23.30;1.00;;;;;;5112262;28;20446;-81
2021/07/14 06:51:16;;;;;;;13.33;11.93;;;23.00;99.90;;;;;;5081647;28;20468;-81
2021/07/14 06:53:45;;;;;;;17.93;14.17;;;23.10;99.90;;;;;;5076821;28;20441;-82
2021/07/14 06:56:13;;;;;;;13.73;12.23;;;23.00;99.90;;;;;;5106858;28;20740;-81
2021/07/14 06:58:41;;;;;;;15.57;13.90;;;22.90;99.90;;;;;;5105236;28;20453;-80
2021/07/14 07:01:10;;;;;;;17.30;13.77;;;23.00;99.90;;;;;;5110076;28;20422;-83
2021/07/14 07:03:39;;;;;;;17.87;15.60;;;22.80;99.90;;;;;;5108476;28;20406;-80
2021/07/14 07:06:07;;;;;;;19.87;15.10;;;22.60;99.90;;;;;;5100399;28;20433;-81
2021/07/14 07:08:36;;;;;;;13.20;11.60;;;22.40;99.90;;;;;;5100469;28;20467;-81
2021/07/14 07:11:05;;;;;;;16.07;13.30;;;22.20;99.90;;;;;;5086201;28;20438;-81
2021/07/14 07:13:33;;;;;;;14.37;12.43;;;22.20;99.90;;;;;;5102902;28;20432;-81
2021/07/14 07:16:03;;;;;;;14.83;12.80;;;22.10;99.90;;;;;;5103580;28;20416;-81
2021/07/14 07:18:31;;;;;;;15.00;13.50;;;22.30;99.90;;;;;;5080687;28;20544;-82
2021/07/14 07:21:01;;;;;;;13.90;12.07;;;22.90;99.90;;;;;;5077952;28;20425;-82
2021/07/14 07:23:31;;;;;;;14.50;12.70;;;23.40;99.90;;;;;;5095198;28;20430;-82
2021/07/14 07:26:00;;;;;;;14.37;12.30;;;24.00;99.90;;;;;;5094989;28;20426;-81
2021/07/14 07:28:33;;;;;;;12.77;11.50;;;24.50;99.90;;;;;;5096093;28;20457;-82
2021/07/14 07:31:06;;;;;;;12.90;11.57;;;24.90;99.90;;;;;;5078693;28;21020;-81
2021/07/14 07:33:34;;;;;;;16.80;12.10;;;25.10;99.90;;;;;;5079002;28;20437;-82
2021/07/14 07:36:03;;;;;;;14.33;12.50;;;25.30;99.90;;;;;;5096841;28;20482;-82
2021/07/14 07:38:33;;;;;;;14.07;12.47;;;25.40;99.90;;;;;;5095272;28;20817;-82
2021/07/14 07:41:04;;;;;;;14.40;11.47;;;25.50;99.90;;;;;;5079720;28;20487;-81
2021/07/14 07:43:32;;;;;;;12.30;11.10;;;25.50;99.90;;;;;;5081315;28;20433;-83
2021/07/14 07:46:00;;;;;;;14.93;13.30;;;25.30;99.90;;;;;;5080508;28;20429;-82
2021/07/14 07:48:30;;;;;;;14.67;13.20;;;25.00;99.90;;;;;;5099413;28;20441;-83
2021/07/14 07:51:01;;;;;;;15.30;13.90;;;24.60;99.90;;;;;;5082568;28;20433;-84
2021/07/14 07:53:30;;;;;;;13.67;12.37;;;24.40;99.90;;;;;;5096818;28;20429;-80
2021/07/14 07:55:58;;;;;;;13.03;11.73;;;24.50;99.90;;;;;;5112983;28;20467;-85
2021/07/14 07:58:28;;;;;;;14.27;12.83;;;24.40;99.90;;;;;;5084335;28;20444;-84
2021/07/14 08:00:56;;;;;;;13.60;12.30;;;24.50;99.90;;;;;;5084990;28;20473;-85
2021/07/14 08:03:26;;;;;;;14.53;13.13;;;24.70;99.90;;;;;;5087668;28;20465;-84
2021/07/14 08:05:54;;;;;;;13.27;12.00;;;25.00;99.90;;;;;;5089768;28;20469;-85
2021/07/14 08:08:22;;;;;;;14.37;12.77;;;25.30;99.90;;;;;;5102914;28;20957;-85
2021/07/14 08:10:52;;;;;;;18.27;12.60;;;25.50;99.90;;;;;;5084509;28;20449;-85
2021/07/14 08:13:21;;;;;;;12.30;11.00;;;25.50;99.90;;;;;;5084915;28;20437;-85
2021/07/14 08:15:51;;;;;;;13.07;11.73;;;25.40;99.90;;;;;;5081208;28;20438;-83
2021/07/14 08:18:19;;;;;;;14.43;11.47;;;25.50;99.90;;;;;;5081613;28;20431;-85
2021/07/14 08:20:47;;;;;;;11.73;10.70;;;25.40;99.90;;;;;;5079434;28;20865;-85
2021/07/14 08:23:16;;;;;;;11.67;10.67;;;25.70;99.90;;;;;;5063100;28;20518;-83
2021/07/14 08:25:44;;;;;;;12.17;11.00;;;26.10;99.90;;;;;;5061964;28;20507;-83
2021/07/14 08:28:13;;;;;;;10.73;9.73;;;26.40;99.90;;;;;;5061135;28;20449;-85
2021/07/14 08:30:41;;;;;;;13.30;11.97;;;26.50;99.90;;;;;;5080226;28;20753;-84
2021/07/14 08:33:11;;;;;;;11.47;10.10;;;26.40;99.90;;;;;;5080503;28;20425;-83
2021/07/14 08:35:40;;;;;;;13.07;11.87;;;26.30;99.90;;;;;;5081083;28;20441;-83
2021/07/14 08:38:09;;;;;;;11.80;10.37;;;25.80;99.90;;;;;;5079951;28;20438;-83
2021/07/14 08:40:38;;;;;;;11.80;10.80;;;25.40;99.90;;;;;;5078890;28;20515;-84
2021/07/14 08:43:09;;;;;;;11.90;10.80;;;25.30;99.90;;;;;;5079832;28;20510;-83
2021/07/14 08:45:38;;;;;;;13.03;11.63;;;25.30;99.90;;;;;;5078565;28;20437;-83
2021/07/14 08:48:08;;;;;;;12.37;11.17;;;25.30;99.90;;;;;;5099743;28;20872;-84
2021/07/14 08:50:43;;;;;;;12.53;11.33;;;25.20;99.90;;;;;;5084884;28;20449;-83
2021/07/14 08:53:16;;;;;;;12.00;10.90;;;24.90;99.90;;;;;;5090987;28;20436;-82
2021/07/14 08:55:44;;;;;;;12.40;11.10;;;24.80;99.90;;;;;;5112762;28;20464;-82
2021/07/14 08:58:13;;;;;;;10.30;9.43;;;25.00;99.90;;;;;;5107256;28;20593;-83
2021/07/14 09:00:42;;;;;;;10.90;9.80;;;25.40;99.90;;;;;;5078493;28;20462;-84
2021/07/14 09:03:11;;;;;;;10.03;9.13;;;25.80;99.90;;;;;;5078862;28;20437;-83
2021/07/14 09:05:40;;;;;;;11.20;10.20;;;26.10;99.90;;;;;;5078282;28;20449;-84
2021/07/14 09:08:09;;;;;;;10.10;9.27;;;26.20;99.90;;;;;;5078704;28;20437;-84
2021/07/14 09:10:37;;;;;;;11.43;10.30;;;26.00;99.90;;;;;;5079713;28;20449;-84
2021/07/14 09:13:05;;;;;;;11.20;10.30;;;26.10;99.90;;;;;;5098362;28;20429;-85
2021/07/14 09:15:40;;;;;;;12.70;11.47;;;26.00;99.90;;;;;;5101818;28;20420;-84
2021/07/14 09:18:09;;;;;;;12.90;11.70;;;26.10;99.90;;;;;;5082937;28;20440;-84
2021/07/14 09:20:37;;;;;;;11.83;10.83;;;26.40;99.90;;;;;;5083164;28;20460;-85
2021/07/14 09:23:09;;;;;;;12.40;11.30;;;26.60;99.90;;;;;;5100463;28;20428;-85
2021/07/14 09:25:44;;;;;;;12.77;11.60;;;26.40;99.90;;;;;;5082037;28;20440;-84
2021/07/14 09:28:14;;;;;;;14.03;12.77;;;26.30;99.90;;;;;;5100855;28;20454;-84
2021/07/14 09:30:45;;;;;;;13.73;12.50;;;26.30;99.90;;;;;;5100164;28;20425;-85
2021/07/14 09:33:16;;;;;;;13.80;12.60;;;26.10;99.90;;;;;;5100642;28;21063;-85
2021/07/14 09:35:46;;;;;;;13.50;12.20;;;26.10;99.90;;;;;;5081493;28;20537;-84
2021/07/14 09:38:17;;;;;;;11.93;10.93;;;26.20;99.90;;;;;;5082478;28;20446;-84
2021/07/14 09:40:49;;;;;;;12.50;11.37;;;26.20;99.90;;;;;;5081886;28;20466;-84
2021/07/14 09:43:19;;;;;;;12.40;11.20;;;26.40;99.90;;;;;;5099989;28;20507;-85
2021/07/14 09:45:49;;;;;;;12.30;11.13;;;26.50;99.90;;;;;;5081208;28;20438;-85
2021/07/14 09:48:23;;;;;;;12.70;11.50;;;26.50;99.90;;;;;;5081183;28;20700;-84
2021/07/14 09:50:54;;;;;;;12.77;11.57;;;26.50;99.90;;;;;;5095125;28;20438;-84
2021/07/14 09:56:13;;;;;;;12.87;11.67;;;26.80;99.90;;;;;;5076722;28;20449;-82
2021/07/14 09:59:03;;;;;;;11.77;10.43;;;26.90;99.90;;;;;;5078762;28;20457;-82
2021/07/14 10:01:36;;;;;;;14.50;12.50;;;26.90;99.90;;;;;;5029663;28;20562;-68
2021/07/14 10:04:05;;;;;;;13.20;12.00;;;27.00;99.90;;;;;;5028742;28;20420;-68
2021/07/14 10:07:05;;;;;;;12.50;11.30;;;26.40;99.90;;;;;;5031210;28;20438;-68
2021/07/14 10:09:34;;;;;;;10.90;9.90;;;26.50;99.90;;;;;;5049642;28;20556;-67
2021/07/14 10:12:32;;;;;;;12.90;11.80;;;26.70;99.90;;;;;;5066241;28;20454;-66
2021/07/14 10:15:20;;;;;;;11.47;10.37;;;26.90;99.90;;;;;;5049275;28;21002;-67
2021/07/14 10:17:52;;;;;;;11.43;10.40;;;26.90;99.90;;;;;;5050214;28;20423;-66
2021/07/14 10:20:25;;;;;;;11.27;10.10;;;26.90;99.90;;;;;;5054559;28;20477;-67
2021/07/14 10:22:55;;;;;;;10.50;9.60;;;26.80;99.90;;;;;;5050927;28;20431;-67
2021/07/14 10:25:26;;;;;;;9.00;8.10;;;26.60;99.90;;;;;;5051496;28;20457;-67
2021/07/14 10:27:55;;;;;;;9.20;8.20;;;26.60;99.90;;;;;;5067660;28;20423;-66
2021/07/14 10:30:24;;;;;;;11.97;10.80;;;26.70;99.90;;;;;;5035804;28;20546;-66
2021/07/14 10:32:53;;;;;;;9.73;8.93;;;26.70;99.90;;;;;;5033369;28;20420;-68
2021/07/14 10:35:24;;;;;;;9.97;9.00;;;26.50;99.90;;;;;;5029655;28;20977;-68
2021/07/14 10:38:15;;;;;;;9.90;8.93;;;26.40;99.90;;;;;;5031707;28;20419;-67
2021/07/14 10:40:47;;;;;;;10.03;8.77;;;26.60;99.90;;;;;;5047037;28;20472;-68
2021/07/14 10:43:17;;;;;;;9.60;8.80;;;26.70;99.90;;;;;;5050238;28;20417;-68
2021/07/14 10:45:48;;;;;;;9.43;8.63;;;26.70;99.90;;;;;;5034305;28;20428;-68
2021/07/14 10:48:17;;;;;;;9.70;8.80;;;26.90;99.90;;;;;;5047546;28;20512;-67
2021/07/14 10:50:47;;;;;;;9.93;9.00;;;26.90;99.90;;;;;;5048403;28;20452;-66
2021/07/14 10:53:22;;;;;;;11.20;10.23;;;26.60;99.90;;;;;;5048432;28;20482;-66
2021/07/14 10:55:55;;;;;;;10.07;9.07;;;26.80;99.90;;;;;;5058880;28;20460;-67
2021/07/14 10:58:25;;;;;;;9.67;8.87;;;27.10;99.90;;;;;;5071455;28;20859;-68
2021/07/14 11:00:53;;;;;;;10.60;9.60;;;27.10;99.90;;;;;;5030609;28;1104659;-65
2021/07/14 11:03:43;;;;;;;10.30;9.40;;;27.00;99.90;;;;;;5067238;28;20262;-67
2021/07/14 11:06:14;;;;;;;11.63;10.53;;;26.90;99.90;;;;;;5048870;28;20467;-68
2021/07/14 11:08:47;;;;;;;10.93;10.00;;;26.90;99.90;;;;;;5052018;28;20430;-67
2021/07/14 11:11:18;;;;;;;9.43;8.70;;;26.80;99.90;;;;;;5065915;28;20835;-67
2021/07/14 11:13:48;;;;;;;10.20;9.00;;;26.80;99.90;;;;;;5052081;28;20442;-69
2021/07/14 11:16:29;;;;;;;10.30;9.20;;;26.80;99.90;;;;;;5070281;28;20862;-67
2021/07/14 11:19:06;;;;;;;10.03;9.23;;;27.10;99.90;;;;;;5034907;28;20419;-68
2021/07/14 11:21:49;;;;;;;9.77;8.87;;;27.50;99.90;;;;;;5050537;28;20559;-69
2021/07/14 11:24:55;;;;;;;9.07;8.27;;;27.50;99.90;;;;;;5034113;28;20922;-66
2021/07/14 11:27:45;;;;;;;10.30;9.40;;;27.60;99.90;;;;;;5048497;28;20442;-67
2021/07/14 11:30:41;;;;;;;10.23;9.10;;;27.40;99.90;;;;;;5032871;28;20996;-66
2021/07/14 11:33:18;;;;;;;8.93;8.13;;;27.10;99.90;;;;;;5030523;28;20805;-66
2021/07/14 11:35:52;;;;;;;9.90;9.00;;;26.70;99.90;;;;;;5033555;28;20424;-66
2021/07/14 11:38:23;;;;;;;7.80;7.00;;;26.70;99.90;;;;;;5048745;28;20514;-65
2021/07/14 11:40:53;;;;;;;9.50;8.70;;;27.00;99.90;;;;;;5048408;28;20513;-68
2021/07/14 11:43:39;;;;;;;7.40;6.70;;;27.30;99.90;;;;;;5062466;28;20443;-68
2021/07/14 11:46:11;;;;;;;8.70;7.20;;;27.40;99.90;;;;;;5032891;28;20428;-66
2021/07/14 11:48:41;;;;;;;7.53;6.83;;;27.50;99.90;;;;;;5033271;28;20428;-66
2021/07/14 11:51:21;;;;;;;8.03;7.13;;;27.40;99.90;;;;;;5033208;28;20444;-67
2021/07/14 11:53:50;;;;;;;8.43;7.50;;;27.60;99.90;;;;;;5034022;28;20459;-68
2021/07/14 11:56:32;;;;;;;7.33;6.67;;;28.10;99.90;;;;;;5057794;28;20450;-66
2021/07/14 11:59:06;;;;;;;8.27;7.43;;;28.10;99.90;;;;;;5053405;28;20426;-66
2021/07/14 12:01:53;;;;;;;6.70;6.20;;;28.40;99.90;;;;;;5053127;28;21003;-69
2021/07/14 12:04:24;;;;;;;7.23;6.63;;;28.80;99.90;;;;;;5068971;28;20462;-66
2021/07/14 12:07:00;;;;;;;7.23;6.63;;;29.00;99.90;;;;;;5053287;28;20419;-67
2021/07/14 12:09:32;;;;;;;8.07;7.30;;;28.80;99.90;;;;;;5053127;28;20422;-66
2021/07/14 12:12:08;;;;;;;6.93;6.33;;;28.60;99.90;;;;;;5069106;28;21006;-67
2021/07/14 12:14:40;;;;;;;7.33;6.73;;;28.70;99.90;;;;;;5053215;28;20419;-67
2021/07/14 12:17:10;;;;;;;7.70;6.77;;;28.90;99.90;;;;;;5053165;28;20431;-67
2021/07/14 12:19:40;;;;;;;7.33;6.60;;;28.70;99.90;;;;;;5053101;28;20427;-66
2021/07/14 12:22:11;;;;;;;7.23;6.33;;;28.60;99.90;;;;;;5052735;28;20459;-66
2021/07/14 12:24:42;;;;;;;7.20;6.60;;;29.00;99.90;;;;;;5052743;28;20922;-66
2021/07/14 12:27:15;;;;;;;6.87;6.33;;;29.20;99.90;;;;;;5051335;28;20433;-66
2021/07/14 12:29:52;;;;;;;7.20;6.50;;;29.40;99.90;;;;;;5052388;28;20486;-66
2021/07/14 12:32:32;;;;;;;8.27;7.57;;;29.40;99.90;;;;;;5051386;28;20873;-67
2021/07/14 12:35:03;;;;;;;8.47;7.03;;;29.00;99.90;;;;;;5052276;28;20502;-65
2021/07/14 12:37:31;;;;;;;8.00;7.20;;;28.50;99.90;;;;;;5052725;28;20419;-66
2021/07/14 12:39:59;;;;;;;8.83;7.60;;;28.10;99.90;;;;;;5052574;28;20443;-66
2021/07/14 12:42:27;;;;;;;7.07;6.47;;;28.10;99.90;;;;;;5052659;28;20872;-67
2021/07/14 12:44:57;;;;;;;7.17;6.57;;;27.80;99.90;;;;;;5067744;28;20426;-67
2021/07/14 12:47:25;;;;;;;8.47;7.70;;;27.80;99.90;;;;;;5052495;28;20910;-66
2021/07/14 12:49:54;;;;;;;7.23;6.53;;;27.80;99.90;;;;;;5052641;28;20980;-67
2021/07/14 12:52:23;;;;;;;6.83;6.23;;;28.00;99.90;;;;;;5051603;28;20808;-67
2021/07/14 12:54:56;;;;;;;7.10;6.40;;;28.30;99.90;;;;;;5052393;28;20415;-67
2021/07/14 12:57:27;;;;;;;8.93;5.10;;;28.70;99.90;;;;;;5052133;28;20435;-66
2021/07/14 13:00:00;;;;;;;6.93;6.33;;;28.80;99.90;;;;;;5053016;28;20451;-68